Time;durP1;ratioP1;P1;durP2;ratioP2;P2;SDS_P1;SDS_P2;PMS_P1;PMS_P2;Temp;Humidity;BMP_temperature;BMP_pressure;BME280_temperature;BME280_humidity;BME280_pressure;Samples;Min_cycle;Max_cycle;Signal;HPM_P1;HPM_P2
2023/09/28 00:01:02;;;;;;;26.43;11.10;;;;;;;16.24;77.79;100916.56;4208638;28;21736;-71
2023/09/28 00:03:29;;;;;;;24.17;11.30;;;;;;;16.15;78.10;100916.56;4218133;28;20825;-68
2023/09/28 00:05:56;;;;;;;24.63;11.60;;;;;;;16.13;78.15;100907.69;4196965;28;20370;-70
2023/09/28 00:08:22;;;;;;;22.03;11.20;;;;;;;16.17;78.12;100910.94;4198887;28;20301;-68
2023/09/28 00:10:49;;;;;;;22.23;11.73;;;;;;;16.14;78.44;100911.28;4205157;28;20472;-64
2023/09/28 00:13:16;;;;;;;25.77;11.67;;;;;;;16.08;79.06;100909.25;4198785;28;20255;-67
2023/09/28 00:15:42;;;;;;;22.27;11.63;;;;;;;16.09;79.00;100905.47;4218604;28;20620;-68
2023/09/28 00:18:09;;;;;;;22.53;12.10;;;;;;;16.06;79.35;100903.09;4210548;28;21943;-67
2023/09/28 00:20:36;;;;;;;25.63;12.23;;;;;;;16.08;79.37;100910.09;4197884;28;20334;-69
2023/09/28 00:23:03;;;;;;;28.20;12.27;;;;;;;16.15;79.08;100908.38;4194425;28;20975;-69
2023/09/28 00:25:31;;;;;;;25.50;11.87;;;;;;;16.16;79.06;100903.78;4230212;28;20302;-69
2023/09/28 00:27:57;;;;;;;28.00;12.83;;;;;;;16.12;79.51;100906.00;4209196;28;20343;-70
2023/09/28 00:30:26;;;;;;;24.77;12.87;;;;;;;16.14;79.36;100900.38;4212485;28;20234;-67
2023/09/28 00:32:54;;;;;;;30.53;13.63;;;;;;;16.13;79.26;100901.38;4189876;28;21033;-66
2023/09/28 00:35:22;;;;;;;28.70;12.60;;;;;;;16.05;80.15;100904.13;4206407;28;20233;-67
2023/09/28 00:37:52;;;;;;;23.50;12.53;;;;;;;16.05;79.92;100902.25;4201792;28;20245;-67
2023/09/28 00:40:20;;;;;;;32.63;13.37;;;;;;;16.04;79.85;100900.56;4203410;28;20234;-65
2023/09/28 00:42:49;;;;;;;29.97;13.90;;;;;;;15.98;80.78;100906.69;4208278;28;20232;-70
2023/09/28 00:45:17;;;;;;;29.13;13.73;;;;;;;15.94;80.71;100897.13;4204080;28;20597;-69
2023/09/28 00:47:45;;;;;;;30.10;14.50;;;;;;;16.02;80.65;100901.72;4234985;28;21223;-67
2023/09/28 00:50:17;;;;;;;24.20;14.10;;;;;;;15.99;80.58;100895.59;4214840;28;20232;-69
2023/09/28 00:52:48;;;;;;;33.70;14.00;;;;;;;15.97;80.92;100900.38;4197592;28;23501;-66
2023/09/28 00:55:18;;;;;;;34.27;15.20;;;;;;;16.03;80.62;100901.59;4204235;28;21897;-67
2023/09/28 00:57:46;;;;;;;30.57;15.23;;;;;;;16.04;80.51;100905.16;4220718;28;20664;-64
2023/09/28 01:00:31;;;;;;;30.23;15.53;;;;;;;15.95;80.96;100901.59;4205004;28;20232;-66
2023/09/28 01:03:02;;;;;;;28.63;15.40;;;;;;;15.93;81.06;100898.16;4217889;28;20656;-71
2023/09/28 01:05:33;;;;;;;31.17;15.73;;;;;;;15.88;81.36;100901.41;4217033;28;20353;-69
2023/09/28 01:08:07;;;;;;;33.23;15.30;;;;;;;15.92;80.89;100897.31;4195473;28;21095;-66
2023/09/28 01:10:37;;;;;;;27.20;16.17;;;;;;;15.92;80.99;100894.59;4208627;28;20240;-69
2023/09/28 01:13:11;;;;;;;27.30;15.43;;;;;;;15.91;81.19;100887.41;4195319;28;20328;-67
2023/09/28 01:15:37;;;;;;;34.50;16.17;;;;;;;15.84;81.34;100894.59;4223503;28;20866;-65
2023/09/28 01:18:04;;;;;;;34.80;16.93;;;;;;;15.80;81.72;100890.44;4201689;28;23544;-70
2023/09/28 01:20:35;;;;;;;30.97;16.87;;;;;;;15.82;81.34;100886.53;4196631;28;20231;-68
2023/09/28 01:23:04;;;;;;;31.60;16.63;;;;;;;15.82;81.44;100888.41;4219188;28;20243;-69
2023/09/28 01:25:32;;;;;;;32.47;16.57;;;;;;;15.79;81.62;100877.81;4221100;28;20456;-69
2023/09/28 01:27:58;;;;;;;37.60;16.93;;;;;;;15.79;81.64;100886.88;4202695;28;20225;-68
2023/09/28 01:30:26;;;;;;;36.13;17.77;;;;;;;15.81;81.51;100881.25;4211544;28;21976;-70
2023/09/28 01:32:55;;;;;;;41.30;17.77;;;;;;;15.79;81.39;100878.69;4215575;28;21786;-67
2023/09/28 01:35:22;;;;;;;34.33;16.90;;;;;;;15.81;81.18;100879.38;4205977;28;20944;-69
2023/09/28 01:37:48;;;;;;;32.63;17.47;;;;;;;15.80;81.49;100883.13;4206209;28;20411;-67
2023/09/28 01:40:16;;;;;;;34.73;18.57;;;;;;;15.79;81.22;100883.28;4216178;28;21050;-65
2023/09/28 01:42:43;;;;;;;33.90;17.20;;;;;;;15.76;81.39;100881.75;4216393;28;20237;-65
2023/09/28 01:45:11;;;;;;;37.23;19.03;;;;;;;15.75;81.40;100877.31;4210224;28;20228;-66
2023/09/28 01:47:39;;;;;;;38.93;18.53;;;;;;;15.74;81.41;100872.91;4190314;28;20227;-66
2023/09/28 01:50:06;;;;;;;38.73;19.17;;;;;;;15.73;81.54;100878.50;4219230;28;21071;-67
2023/09/28 01:52:33;;;;;;;35.77;18.40;;;;;;;15.68;81.86;100868.97;4212102;28;20317;-68
2023/09/28 01:55:00;;;;;;;38.90;18.50;;;;;;;15.64;81.58;100858.56;4204781;28;20252;-64
2023/09/28 01:57:26;;;;;;;35.37;18.50;;;;;;;15.60;81.86;100859.91;4197904;28;21681;-66
2023/09/28 01:59:54;;;;;;;36.73;18.20;;;;;;;15.56;81.62;100862.13;4206910;28;20283;-65
2023/09/28 02:02:21;;;;;;;38.53;18.27;;;;;;;15.58;81.49;100862.81;4213253;28;20466;-68
2023/09/28 02:04:48;;;;;;;29.03;16.90;;;;;;;15.53;81.88;100852.41;4213639;28;20298;-66
2023/09/28 02:07:14;;;;;;;37.73;18.63;;;;;;;15.56;81.56;100869.47;4220496;28;20240;-66
2023/09/28 02:09:41;;;;;;;35.77;17.60;;;;;;;15.53;81.37;100874.22;4216522;28;20238;-68
2023/09/28 02:12:08;;;;;;;32.00;18.23;;;;;;;15.60;80.76;100865.38;4201621;28;20244;-66
2023/09/28 02:14:34;;;;;;;33.73;17.77;;;;;;;15.54;80.90;100872.38;4204405;28;22344;-69
2023/09/28 02:17:02;;;;;;;39.17;17.40;;;;;;;15.60;80.65;100860.78;4197805;28;21440;-72
2023/09/28 02:19:29;;;;;;;32.73;17.83;;;;;;;15.58;80.63;100865.53;4204216;28;20655;-69
2023/09/28 02:21:56;;;;;;;34.70;17.20;;;;;;;15.51;80.39;100865.38;4219156;28;20235;-65
2023/09/28 02:24:22;;;;;;;30.83;17.00;;;;;;;15.53;80.59;100868.78;4191527;28;21136;-69
2023/09/28 02:26:53;;;;;;;37.30;17.70;;;;;;;15.49;80.62;100867.44;4202059;28;20781;-67
2023/09/28 02:29:20;;;;;;;41.67;19.07;;;;;;;15.46;80.60;100870.47;4202316;28;20229;-68
2023/09/28 02:31:47;;;;;;;32.80;16.60;;;;;;;15.45;80.54;100863.31;4211297;28;21389;-68
2023/09/28 02:34:14;;;;;;;33.77;17.63;;;;;;;15.52;79.83;100852.59;4191222;28;20245;-65
2023/09/28 02:36:40;;;;;;;38.67;17.57;;;;;;;15.40;80.23;100856.69;4207626;28;20464;-68
2023/09/28 02:39:07;;;;;;;43.43;18.90;;;;;;;15.27;81.14;100852.56;4206787;28;21088;-68
2023/09/28 02:41:35;;;;;;;33.13;17.73;;;;;;;15.20;81.44;100855.13;4231177;28;20286;-67
2023/09/28 02:44:02;;;;;;;36.67;17.63;;;;;;;15.18;81.25;100854.41;4208386;28;20250;-68
2023/09/28 02:46:31;;;;;;;38.80;18.57;;;;;;;15.21;81.31;100856.81;4207105;28;20238;-72
2023/09/28 02:48:58;;;;;;;34.97;18.37;;;;;;;15.20;81.18;100865.16;4209852;28;20458;-66
2023/09/28 02:51:24;;;;;;;37.47;18.70;;;;;;;15.12;81.56;100865.13;4197573;28;20569;-65
2023/09/28 02:53:51;;;;;;;38.27;18.73;;;;;;;15.07;81.71;100857.44;4224518;28;20246;-67
2023/09/28 02:56:18;;;;;;;34.50;18.50;;;;;;;15.05;81.75;100856.78;4216124;28;21082;-66
2023/09/28 02:58:45;;;;;;;35.40;18.90;;;;;;;15.07;81.95;100862.91;4213313;28;20240;-68
2023/09/28 03:01:12;;;;;;;42.07;20.27;;;;;;;15.04;82.04;100864.09;4213760;28;20244;-69
2023/09/28 03:03:38;;;;;;;33.47;18.03;;;;;;;15.07;81.71;100864.78;4208323;28;20234;-68
2023/09/28 03:06:05;;;;;;;32.73;18.87;;;;;;;15.08;81.75;100856.44;4224730;28;21702;-68
2023/09/28 03:08:31;;;;;;;41.83;19.43;;;;;;;15.12;81.31;100857.81;4211006;28;20233;-68
2023/09/28 03:10:58;;;;;;;39.37;18.83;;;;;;;15.10;81.50;100859.00;4215939;28;20250;-67
2023/09/28 03:13:27;;;;;;;33.07;18.47;;;;;;;15.04;81.75;100853.19;4221766;28;20303;-67
2023/09/28 03:15:55;;;;;;;33.30;18.33;;;;;;;15.04;81.64;100852.34;4207501;28;20231;-65
2023/09/28 03:18:21;;;;;;;32.27;17.13;;;;;;;14.97;81.97;100846.69;4210969;28;22088;-68
2023/09/28 03:20:48;;;;;;;31.33;16.90;;;;;;;14.99;81.78;100852.00;4214661;28;20580;-67
2023/09/28 03:23:15;;;;;;;30.40;17.23;;;;;;;14.95;81.88;100850.59;4211266;28;21643;-66
2023/09/28 03:25:42;;;;;;;34.33;17.80;;;;;;;14.99;81.82;100847.38;4205692;28;20267;-65
2023/09/28 03:28:09;;;;;;;37.73;17.57;;;;;;;14.92;82.48;100843.63;4219062;28;21063;-67
2023/09/28 03:30:36;;;;;;;37.83;17.83;;;;;;;14.82;82.60;100851.94;4221410;28;20280;-67
2023/09/28 03:33:03;;;;;;;35.70;17.83;;;;;;;14.79;83.02;100845.97;4214906;28;21554;-65
2023/09/28 03:35:30;;;;;;;43.63;19.13;;;;;;;14.75;83.18;100856.34;4204831;28;20310;-69
2023/09/28 03:37:58;;;;;;;34.77;17.13;;;;;;;14.80;82.83;100845.81;4214116;28;20255;-67
2023/09/28 03:40:34;;;;;;;34.30;15.87;;;;;;;14.97;81.98;100846.69;4208672;28;20319;-70
2023/09/28 03:43:01;;;;;;;33.80;17.07;;;;;;;14.99;81.91;100849.28;4210465;28;20634;-67
2023/09/28 03:45:29;;;;;;;31.33;16.63;;;;;;;14.95;82.02;100858.78;4199818;28;21779;-65
2023/09/28 03:47:55;;;;;;;31.67;16.47;;;;;;;14.96;81.95;100855.03;4205335;28;20331;-69
2023/09/28 03:50:23;;;;;;;34.77;16.30;;;;;;;14.92;82.11;100845.50;4212519;28;21596;-68
2023/09/28 03:52:50;;;;;;;35.60;18.53;;;;;;;14.94;81.97;100852.50;4212258;28;20277;-65
2023/09/28 03:55:19;;;;;;;36.43;16.67;;;;;;;14.90;82.23;100851.09;4208324;28;20339;-67
2023/09/28 03:57:48;;;;;;;30.87;17.50;;;;;;;14.88;82.29;100842.22;4209298;28;20316;-68
2023/09/28 04:00:17;;;;;;;35.53;17.73;;;;;;;14.80;82.74;100845.81;4213529;28;21518;-68
2023/09/28 04:02:46;;;;;;;33.57;17.57;;;;;;;14.74;82.91;100846.47;4207282;28;22890;-69
2023/09/28 04:05:18;;;;;;;36.13;16.93;;;;;;;14.72;83.26;100851.22;4191118;28;20315;-66
2023/09/28 04:07:45;;;;;;;33.47;17.43;;;;;;;14.71;83.00;100836.75;4243215;28;21794;-68
2023/09/28 04:10:12;;;;;;;35.37;17.10;;;;;;;14.69;83.22;100836.06;4212056;28;20289;-67
2023/09/28 04:12:40;;;;;;;31.13;16.00;;;;;;;14.69;83.32;100841.50;4213092;28;25040;-69
2023/09/28 04:15:07;;;;;;;27.13;15.50;;;;;;;14.70;83.02;100840.50;4203138;28;22914;-68
2023/09/28 04:17:34;;;;;;;28.07;15.57;;;;;;;14.63;83.08;100839.41;4209730;28;20232;-64
2023/09/28 04:20:05;;;;;;;35.37;18.30;;;;;;;14.60;83.73;100849.78;4206712;28;20238;-68
2023/09/28 04:22:32;;;;;;;37.73;19.47;;;;;;;14.48;84.15;100844.59;4204685;28;20247;-66
2023/09/28 04:24:59;;;;;;;29.67;17.07;;;;;;;14.64;83.52;100846.56;4210088;28;20670;-68
2023/09/28 04:27:26;;;;;;;34.17;17.43;;;;;;;14.49;84.22;100849.03;4218697;28;20234;-67
2023/09/28 04:29:52;;;;;;;33.47;16.47;;;;;;;14.38;85.30;100852.91;4204922;28;20246;-66
2023/09/28 04:32:19;;;;;;;30.00;15.53;;;;;;;14.54;85.16;100837.66;4190528;28;20266;-67
2023/09/28 04:34:46;;;;;;;37.17;17.67;;;;;;;14.42;85.05;100839.81;4193872;28;20234;-65
2023/09/28 04:37:13;;;;;;;30.30;17.50;;;;;;;14.41;85.22;100843.56;4185042;28;20236;-68
2023/09/28 04:39:39;;;;;;;40.40;17.37;;;;;;;14.44;85.29;100848.69;4217778;28;20236;-71
2023/09/28 04:42:06;;;;;;;37.47;18.27;;;;;;;14.43;85.27;100846.97;4218308;28;20635;-65
2023/09/28 04:44:33;;;;;;;32.80;17.60;;;;;;;14.43;85.34;100847.81;4222880;28;20252;-66
2023/09/28 04:47:00;;;;;;;35.97;17.97;;;;;;;14.45;85.36;100853.13;4230575;28;20232;-69
2023/09/28 04:49:27;;;;;;;35.40;16.80;;;;;;;14.52;85.33;100851.47;4331712;28;20828;-67
2023/09/28 04:51:55;;;;;;;37.20;17.13;;;;;;;14.63;84.70;100858.47;4249221;28;26384;-71
2023/09/28 04:54:21;;;;;;;37.17;17.03;;;;;;;14.56;84.84;100852.81;4241555;28;22225;-68
2023/09/28 04:56:49;;;;;;;34.67;17.53;;;;;;;14.54;84.79;100852.13;4258125;28;20391;-70
2023/09/28 04:59:15;;;;;;;42.33;18.30;;;;;;;14.61;84.93;100856.94;4273984;28;20867;-67
2023/09/28 05:01:42;;;;;;;42.40;17.17;;;;;;;14.61;84.77;100854.22;4210116;28;20952;-70
2023/09/28 05:04:11;;;;;;;46.07;18.70;;;;;;;14.65;84.47;100858.31;4218044;28;20319;-68
2023/09/28 05:06:40;;;;;;;38.27;17.50;;;;;;;14.64;84.74;100857.47;4209136;28;20283;-69
2023/09/28 05:09:07;;;;;;;36.93;17.27;;;;;;;14.67;84.62;100859.03;4206545;28;20306;-67
2023/09/28 05:11:34;;;;;;;33.07;17.00;;;;;;;14.67;84.32;100851.72;4223321;28;20234;-67
2023/09/28 05:14:04;;;;;;;34.93;17.03;;;;;;;14.67;84.42;100848.97;4243299;28;21176;-67
2023/09/28 05:16:31;;;;;;;36.43;17.10;;;;;;;14.68;84.27;100855.31;4223614;28;20361;-68
2023/09/28 05:18:57;;;;;;;46.20;18.77;;;;;;;14.69;84.23;100857.84;4201739;28;20240;-69
2023/09/28 05:21:24;;;;;;;35.50;17.67;;;;;;;14.69;84.03;100846.97;4209065;28;22328;-72
2023/09/28 05:23:51;;;;;;;43.83;18.53;;;;;;;14.71;84.34;100853.09;4207582;28;20235;-70
2023/09/28 05:26:18;;;;;;;32.20;17.63;;;;;;;14.79;84.00;100854.16;4221204;28;20234;-69
2023/09/28 05:28:45;;;;;;;37.03;17.87;;;;;;;14.82;83.98;100853.81;4221716;28;21757;-69
2023/09/28 05:31:11;;;;;;;41.60;18.93;;;;;;;14.81;84.25;100846.63;4225476;28;20989;-70
2023/09/28 05:33:39;;;;;;;43.93;18.97;;;;;;;14.86;83.60;100852.47;4205508;28;23827;-72
2023/09/28 05:36:05;;;;;;;44.93;18.83;;;;;;;14.86;83.80;100853.31;4215380;28;20232;-70
2023/09/28 05:38:32;;;;;;;35.47;17.93;;;;;;;14.90;83.79;100851.09;4209786;28;20249;-69
2023/09/28 05:40:58;;;;;;;33.27;17.93;;;;;;;15.06;83.25;100858.50;4214393;28;20240;-69
2023/09/28 05:43:25;;;;;;;40.10;19.00;;;;;;;15.15;82.79;100848.44;4206324;28;20655;-72
2023/09/28 05:45:52;;;;;;;46.57;18.93;;;;;;;15.18;82.68;100853.59;4222562;28;20241;-71
2023/09/28 05:48:18;;;;;;;43.73;18.83;;;;;;;15.19;82.48;100844.34;4227238;28;20309;-69
2023/09/28 05:50:46;;;;;;;42.70;18.43;;;;;;;15.30;81.46;100852.22;4207489;28;22341;-69
2023/09/28 05:53:12;;;;;;;34.70;18.37;;;;;;;15.35;81.40;100851.72;4211320;28;20264;-72
2023/09/28 05:55:40;;;;;;;39.00;18.07;;;;;;;15.41;80.62;100856.50;4217883;28;20564;-70
2023/09/28 05:58:06;;;;;;;38.83;17.27;;;;;;;15.45;80.81;100860.59;4219283;28;20240;-70
2023/09/28 06:00:33;;;;;;;39.03;17.87;;;;;;;15.55;80.15;100859.56;4215344;28;20320;-70
2023/09/28 06:03:00;;;;;;;34.07;17.30;;;;;;;15.60;80.05;100854.44;4214313;28;20246;-69
2023/09/28 06:05:28;;;;;;;37.13;17.53;;;;;;;15.65;79.89;100858.38;4213667;28;21540;-70
2023/09/28 06:07:56;;;;;;;38.23;16.97;;;;;;;15.85;78.68;100852.63;4270691;28;20510;-70
2023/09/28 06:10:22;;;;;;;38.33;17.40;;;;;;;15.81;78.73;100852.09;4226799;28;22117;-70
2023/09/28 06:12:49;;;;;;;39.73;16.77;;;;;;;15.92;78.06;100850.91;4251253;28;20242;-69
2023/09/28 06:15:16;;;;;;;41.57;17.63;;;;;;;16.02;77.68;100855.31;4230117;28;21402;-69
2023/09/28 06:17:42;;;;;;;29.60;15.77;;;;;;;16.11;77.02;100852.41;4263495;28;20745;-69
2023/09/28 06:20:09;;;;;;;36.97;16.87;;;;;;;16.20;76.85;100842.31;4222101;28;20337;-73
2023/09/28 06:22:36;;;;;;;35.50;17.13;;;;;;;16.17;76.68;100845.38;4241190;28;20245;-73
2023/09/28 06:25:03;;;;;;;33.73;16.73;;;;;;;16.29;76.28;100849.47;4220667;28;20260;-72
2023/09/28 06:27:32;;;;;;;28.13;14.90;;;;;;;16.44;74.52;100844.09;4232255;28;20235;-71
2023/09/28 06:29:58;;;;;;;39.40;15.90;;;;;;;16.48;74.92;100850.94;4228871;28;20728;-72
2023/09/28 06:32:25;;;;;;;35.33;15.27;;;;;;;16.56;74.53;100846.47;4228827;28;20245;-72
2023/09/28 06:34:52;;;;;;;32.73;15.30;;;;;;;16.73;73.55;100845.34;4210805;28;25378;-70
2023/09/28 06:37:19;;;;;;;30.60;14.87;;;;;;;16.73;72.99;100844.50;4212559;28;21563;-70
2023/09/28 06:39:46;;;;;;;35.27;13.70;;;;;;;16.93;71.91;100844.97;4221244;28;20296;-72
2023/09/28 06:42:12;;;;;;;26.87;13.47;;;;;;;16.97;71.79;100840.81;4219760;28;20295;-71
2023/09/28 06:44:59;;;;;;;29.80;12.70;;;;;;;17.17;70.70;100845.84;4211113;28;21053;-72
2023/09/28 06:47:26;;;;;;;30.50;14.13;;;;;;;17.16;70.49;100842.25;4210205;28;22402;-71
2023/09/28 06:50:14;;;;;;;28.00;12.67;;;;;;;17.34;69.22;100841.13;4215856;28;20228;-72
2023/09/28 06:52:42;;;;;;;29.77;13.13;;;;;;;17.32;69.48;100833.09;4235460;28;20249;-70
2023/09/28 06:55:09;;;;;;;32.30;12.90;;;;;;;17.48;68.95;100847.69;4244362;28;20320;-71
2023/09/28 06:57:35;;;;;;;26.10;11.70;;;;;;;17.49;68.95;100846.63;4191720;28;20369;-69
2023/09/28 07:00:06;;;;;;;27.03;12.57;;;;;;;17.49;68.50;100847.50;4218974;28;22881;-71
2023/09/28 07:02:33;;;;;;;30.23;12.30;;;;;;;17.63;68.13;100847.72;4210810;28;20232;-69
2023/09/28 07:05:05;;;;;;;29.27;12.63;;;;;;;17.78;67.77;100856.84;4214496;28;23187;-72
2023/09/28 07:07:31;;;;;;;26.90;11.90;;;;;;;17.96;67.91;100853.78;4221033;28;21223;-70
2023/09/28 07:09:58;;;;;;;33.43;12.13;;;;;;;18.02;67.24;100850.31;4245873;28;21926;-72
2023/09/28 07:12:25;;;;;;;25.37;11.67;;;;;;;18.19;66.62;100855.63;4234371;28;21269;-76
2023/09/28 07:14:51;;;;;;;25.40;11.60;;;;;;;18.45;65.50;100855.16;4235907;28;20646;-81
2023/09/28 07:17:18;;;;;;;29.37;13.10;;;;;;;18.83;64.03;100845.97;4248757;28;20240;-80
2023/09/28 07:19:46;;;;;;;27.37;12.20;;;;;;;20.19;60.95;100847.09;4209573;28;21079;-80
2023/09/28 07:22:15;;;;;;;28.70;11.70;;;;;;;22.74;51.60;100853.94;4215429;28;20665;-81
2023/09/28 07:24:43;;;;;;;27.33;11.47;;;;;;;23.44;49.77;100852.31;4241252;28;21763;-79
2023/09/28 07:27:10;;;;;;;24.20;11.17;;;;;;;24.66;46.02;100839.06;4227243;28;20239;-78
2023/09/28 07:29:38;;;;;;;29.47;10.50;;;;;;;26.87;42.44;100846.59;4258520;28;20227;-78
2023/09/28 07:32:06;;;;;;;26.70;10.90;;;;;;;27.27;40.83;100844.88;4244366;28;20239;-80
2023/09/28 07:34:34;;;;;;;22.95;10.30;;;;;;;28.55;37.38;100838.88;4231965;28;20309;-77
2023/09/28 07:37:01;;;;;;;30.55;10.63;;;;;;;29.07;36.09;100845.97;4246815;28;20246;-78
2023/09/28 07:39:32;;;;;;;23.73;9.68;;;;;;;29.48;35.11;100851.16;4245593;28;20466;-80
2023/09/28 07:42:04;;;;;;;23.20;10.77;;;;;;;31.17;32.29;100853.34;4244586;28;20237;-80
2023/09/28 07:44:31;;;;;;;18.47;8.97;;;;;;;31.22;32.12;100852.53;4234311;28;20240;-78
2023/09/28 07:46:58;;;;;;;18.92;9.52;;;;;;;30.79;32.63;100845.09;4252287;28;20238;-75
2023/09/28 07:49:24;;;;;;;20.02;8.48;;;;;;;32.21;30.59;100845.84;4231524;28;20236;-77
2023/09/28 07:51:55;;;;;;;21.58;10.00;;;;;;;32.39;29.29;100847.22;4229048;28;20623;-77
2023/09/28 07:54:21;;;;;;;23.88;9.80;;;;;;;33.07;29.08;100843.03;4224459;28;20897;-73
2023/09/28 07:56:51;;;;;;;21.13;9.95;;;;;;;33.28;28.97;100838.13;4258170;28;20234;-77
2023/09/28 07:59:18;;;;;;;21.48;10.02;;;;;;;32.44;29.60;100843.56;4254659;28;20231;-79
2023/09/28 08:01:45;;;;;;;27.65;9.98;;;;;;;31.94;30.65;100844.22;4258719;28;20375;-80
2023/09/28 08:04:11;;;;;;;24.40;10.05;;;;;;;30.95;31.75;100833.97;4258947;28;20225;-77
2023/09/28 08:06:40;;;;;;;20.00;10.15;;;;;;;32.11;30.35;100838.28;4265238;28;20236;-77
2023/09/28 08:09:13;;;;;;;19.60;9.65;;;;;;;33.33;29.28;100846.53;4226332;28;20274;-75
2023/09/28 08:11:41;;;;;;;23.95;9.98;;;;;;;30.70;31.62;100834.72;4240241;28;22613;-73
2023/09/28 08:14:12;;;;;;;23.20;10.07;;;;;;;30.65;32.07;100821.56;4247284;28;20382;-78
2023/09/28 08:16:45;;;;;;;20.02;10.10;;;;;;;29.72;34.09;100834.91;4253487;28;20385;-78
2023/09/28 08:19:13;;;;;;;23.85;9.38;;;;;;;30.58;32.81;100824.59;4227750;28;21115;-79
2023/09/28 08:21:40;;;;;;;20.00;9.20;;;;;;;30.56;32.40;100823.22;4225175;28;20247;-81
2023/09/28 08:24:08;;;;;;;19.83;8.93;;;;;;;31.20;31.88;100823.97;4245959;28;20253;-78
2023/09/28 08:26:36;;;;;;;21.90;8.93;;;;;;;32.75;29.45;100823.81;4198642;28;20245;-74
2023/09/28 08:29:06;;;;;;;24.80;10.30;;;;;;;32.44;29.90;100830.38;4213729;28;20231;-76
2023/09/28 08:31:33;;;;;;;26.17;9.50;;;;;;;31.44;31.40;100829.91;4243089;28;22758;-58
2023/09/28 08:34:01;;;;;;;27.83;9.07;;;;;;;30.96;32.37;100824.47;4218317;28;20252;-55
2023/09/28 08:36:30;;;;;;;22.38;10.15;;;;;;;29.36;35.61;100829.84;4213871;28;20401;-77
2023/09/28 08:38:57;;;;;;;19.52;9.70;;;;;;;28.18;37.78;100828.34;4195464;28;23931;-68
2023/09/28 08:41:40;;;;;;;24.00;10.10;;;;;;;27.14;39.97;100832.16;4197003;28;20578;-68
2023/09/28 08:44:07;;;;;;;22.92;10.45;;;;;;;26.64;40.81;100827.19;4236151;28;20238;-66
2023/09/28 08:46:38;;;;;;;24.00;10.00;;;;;;;26.18;41.64;100827.03;4242032;28;23981;-68
2023/09/28 08:49:14;;;;;;;25.40;9.80;;;;;;;25.98;43.01;100830.16;4193846;28;22166;-69
2023/09/28 08:51:41;;;;;;;23.40;11.00;;;;;;;25.68;43.12;100825.53;4222478;28;20340;-67
2023/09/28 08:54:07;;;;;;;22.90;10.27;;;;;;;25.33;45.08;100826.28;4217760;28;20282;-67
2023/09/28 08:56:46;;;;;;;36.93;13.87;;;;;;;25.83;44.70;100822.31;4229296;28;20225;-68
2023/09/28 08:59:16;;;;;;;20.77;9.97;;;;;;;25.77;43.21;100826.88;4188451;28;22016;-67
2023/09/28 09:01:44;;;;;;;23.20;9.27;;;;;;;25.68;44.40;100823.59;4202742;28;20541;-67
2023/09/28 09:04:11;;;;;;;30.47;10.20;;;;;;;25.71;44.69;100822.31;4238420;28;20503;-68
2023/09/28 09:06:38;;;;;;;27.07;10.13;;;;;;;25.75;44.27;100820.72;4235901;28;20309;-67
2023/09/28 09:09:06;;;;;;;22.77;11.30;;;;;;;25.19;45.58;100818.16;4224027;28;23421;-66
2023/09/28 09:11:37;;;;;;;25.30;10.63;;;;;;;25.22;45.54;100809.38;4203467;28;21286;-67
2023/09/28 09:14:04;;;;;;;22.10;10.37;;;;;;;25.33;45.41;100806.88;4218144;28;22786;-67
2023/09/28 09:16:31;;;;;;;24.07;9.70;;;;;;;25.72;44.83;100813.72;4220047;28;21853;-67
2023/09/28 09:18:58;;;;;;;23.07;9.50;;;;;;;25.81;44.91;100805.91;4228961;28;22420;-67
2023/09/28 09:21:25;;;;;;;21.00;9.90;;;;;;;24.76;46.45;100805.34;4214986;28;20255;-66
2023/09/28 09:24:10;;;;;;;19.07;9.67;;;;;;;24.29;47.28;100808.63;4210235;28;20394;-67
2023/09/28 09:26:47;;;;;;;28.87;10.27;;;;;;;24.79;47.52;100804.88;4216384;28;21755;-66
2023/09/28 09:29:15;;;;;;;26.43;10.43;;;;;;;24.72;47.76;100810.50;4204480;28;20564;-69
2023/09/28 09:31:47;;;;;;;36.03;10.27;;;;;;;24.77;47.58;100807.03;4215370;28;20227;-67
2023/09/28 09:34:19;;;;;;;18.70;10.07;;;;;;;24.58;47.78;100807.03;4222491;28;20244;-67
2023/09/28 09:36:56;;;;;;;26.63;9.37;;;;;;;24.64;47.05;100803.34;4204779;28;20303;-66
2023/09/28 09:39:25;;;;;;;24.63;9.03;;;;;;;24.95;46.21;100807.00;4219239;28;20235;-66
2023/09/28 09:41:53;;;;;;;30.67;9.63;;;;;;;24.85;47.24;100806.72;4241109;28;20289;-67
2023/09/28 09:44:20;;;;;;;22.00;10.00;;;;;;;24.91;46.96;100804.94;4221776;28;25612;-68
2023/09/28 09:46:50;;;;;;;33.47;10.23;;;;;;;24.43;49.05;100812.94;4231732;28;20232;-66
2023/09/28 09:49:18;;;;;;;24.73;9.90;;;;;;;24.06;49.57;100804.63;4210732;28;23449;-66
2023/09/28 09:51:47;;;;;;;22.00;9.50;;;;;;;24.51;48.22;100815.41;4212009;28;20357;-66
2023/09/28 09:54:16;;;;;;;28.20;10.23;;;;;;;24.61;47.84;100812.09;4228037;28;25556;-67
2023/09/28 09:56:46;;;;;;;23.27;9.63;;;;;;;24.32;49.06;100817.31;4231874;28;23349;-69
2023/09/28 09:59:17;;;;;;;22.20;9.63;;;;;;;24.16;50.22;100817.91;4251344;28;20575;-67
2023/09/28 10:01:47;;;;;;;28.27;9.77;;;;;;;23.99;49.98;100803.84;4236106;28;20242;-66
2023/09/28 10:04:16;;;;;;;26.23;9.00;;;;;;;24.07;50.04;100805.44;4233232;28;20243;-67
2023/09/28 10:06:51;;;;;;;28.27;8.70;;;;;;;23.93;50.48;100800.06;4246036;28;20582;-66
2023/09/28 10:09:21;;;;;;;19.67;8.97;;;;;;;24.03;49.41;100794.88;4219871;28;20239;-66
2023/09/28 10:11:50;;;;;;;24.70;9.17;;;;;;;24.34;48.34;100798.56;4255790;28;20594;-66
2023/09/28 10:14:19;;;;;;;16.77;8.13;;;;;;;24.55;47.45;100795.56;4234723;28;20364;-67
2023/09/28 10:16:48;;;;;;;20.43;8.27;;;;;;;24.56;48.19;100797.25;4228734;28;20298;-66
2023/09/28 10:19:19;;;;;;;21.10;8.30;;;;;;;24.11;48.49;100790.94;4235558;28;23129;-68
2023/09/28 10:21:46;;;;;;;27.83;8.60;;;;;;;24.00;49.74;100788.94;4238434;28;22878;-69
2023/09/28 10:24:17;;;;;;;24.33;9.23;;;;;;;24.24;50.21;100798.25;4227991;28;20305;-67
2023/09/28 10:26:52;;;;;;;23.07;8.90;;;;;;;24.56;48.58;100786.19;4216516;28;20244;-69
2023/09/28 10:29:20;;;;;;;22.97;7.97;;;;;;;24.63;48.78;100790.56;4200703;28;20366;-69
2023/09/28 10:31:47;;;;;;;29.50;8.93;;;;;;;24.89;47.48;100788.53;4255299;28;20261;-68
2023/09/28 10:34:27;;;;;;;21.10;8.10;;;;;;;24.72;46.78;100787.50;4219197;28;20347;-69
2023/09/28 10:37:07;;;;;;;18.63;8.50;;;;;;;24.41;47.70;100781.06;4241808;28;20259;-67
2023/09/28 10:39:34;;;;;;;29.83;7.73;;;;;;;24.63;48.32;100790.56;4233688;28;21826;-66
2023/09/28 10:42:06;;;;;;;21.70;8.00;;;;;;;24.74;47.67;100788.97;4216145;28;20235;-66
2023/09/28 10:44:32;;;;;;;19.97;7.97;;;;;;;24.94;46.87;100788.69;4257903;28;20240;-66
2023/09/28 10:46:59;;;;;;;16.40;7.90;;;;;;;24.81;46.52;100786.13;4206037;28;20245;-67
2023/09/28 10:49:28;;;;;;;16.73;8.10;;;;;;;24.63;48.13;100790.56;4208571;28;20239;-69
2023/09/28 10:51:57;;;;;;;16.07;7.83;;;;;;;24.82;46.66;100791.41;4220085;28;20232;-69
2023/09/28 10:54:27;;;;;;;17.63;7.60;;;;;;;24.74;46.74;100794.50;4216667;28;21171;-67
2023/09/28 10:56:55;;;;;;;17.40;6.93;;;;;;;25.08;46.31;100788.50;4215406;28;20295;-68
2023/09/28 10:59:21;;;;;;;24.63;7.10;;;;;;;25.13;46.26;100780.31;4223881;28;20232;-71
2023/09/28 11:01:48;;;;;;;25.30;6.63;;;;;;;25.42;43.82;100778.63;4222515;28;20476;-69
2023/09/28 11:04:16;;;;;;;22.47;7.13;;;;;;;25.54;45.64;100784.19;4227248;28;20232;-70
2023/09/28 11:06:44;;;;;;;23.07;7.40;;;;;;;25.59;44.11;100789.84;4225139;28;20862;-69
2023/09/28 11:09:13;;;;;;;18.55;7.00;;;;;;;25.58;43.46;100781.78;4218768;28;21279;-72
2023/09/28 11:11:40;;;;;;;25.23;7.37;;;;;;;25.54;43.53;100769.47;4219708;28;20234;-71
2023/09/28 11:14:07;;;;;;;21.67;7.00;;;;;;;25.39;43.60;100773.53;4237820;28;20232;-70
2023/09/28 11:16:34;;;;;;;19.23;6.33;;;;;;;25.44;43.91;100768.16;4215817;28;21292;-74